Time;durP1;ratioP1;P1;durP2;ratioP2;P2;SDS_P1;SDS_P2;PMS_P1;PMS_P2;Temp;Humidity;BMP_temperature;BMP_pressure;BME280_temperature;BME280_humidity;BME280_pressure;Samples;Min_cycle;Max_cycle;Signal;HPM_P1;HPM_P2
2023/12/02 00:01:26;;;;;;;23.27;16.00;;;2.30;80.50;;;;;;6242245;23;20047;-80
2023/12/02 00:03:51;;;;;;;19.23;12.77;;;2.00;80.20;;;;;;6242914;23;20023;-80
2023/12/02 00:06:17;;;;;;;22.37;14.80;;;1.90;80.20;;;;;;6246061;23;20015;-80
2023/12/02 00:08:42;;;;;;;18.33;13.90;;;1.90;80.20;;;;;;6216837;23;20056;-80
2023/12/02 00:11:10;;;;;;;18.30;13.20;;;1.90;80.30;;;;;;6241740;23;20072;-80
2023/12/02 00:13:35;;;;;;;18.67;12.90;;;1.90;80.30;;;;;;6240398;23;20012;-80
2023/12/02 00:16:01;;;;;;;17.33;11.87;;;1.90;80.50;;;;;;6240939;23;20012;-80
2023/12/02 00:18:27;;;;;;;17.50;12.73;;;1.90;80.60;;;;;;6241500;23;20012;-80
2023/12/02 00:20:52;;;;;;;19.47;12.93;;;1.90;80.70;;;;;;6217169;23;20008;-80
2023/12/02 00:23:18;;;;;;;16.33;12.23;;;1.90;80.70;;;;;;6258620;23;20085;-79
2023/12/02 00:25:44;;;;;;;16.97;12.13;;;1.90;80.80;;;;;;6226653;23;20016;-79
2023/12/02 00:28:09;;;;;;;17.70;13.40;;;1.90;80.90;;;;;;6225483;23;20016;-78
2023/12/02 00:30:35;;;;;;;18.43;13.33;;;1.90;80.90;;;;;;6253795;23;20107;-79
2023/12/02 00:33:00;;;;;;;21.73;13.87;;;2.00;80.90;;;;;;6236267;23;20022;-79
2023/12/02 00:35:26;;;;;;;19.70;13.90;;;2.00;80.70;;;;;;6237424;23;20008;-80
2023/12/02 00:37:51;;;;;;;19.50;13.33;;;1.90;80.40;;;;;;6211806;23;20016;-80
2023/12/02 00:40:17;;;;;;;17.97;12.80;;;1.90;80.00;;;;;;6237755;23;20023;-80
2023/12/02 00:42:42;;;;;;;20.53;13.43;;;1.90;79.90;;;;;;6244424;23;20000;-80
2023/12/02 00:45:09;;;;;;;20.20;13.70;;;1.90;79.70;;;;;;6272620;23;20004;-80
2023/12/02 00:47:34;;;;;;;19.13;13.33;;;1.80;79.60;;;;;;6245336;23;20012;-81
2023/12/02 00:50:00;;;;;;;18.90;12.53;;;1.80;79.60;;;;;;6267437;23;20008;-81
2023/12/02 00:52:25;;;;;;;18.53;13.07;;;1.80;79.50;;;;;;6265227;23;20020;-81
2023/12/02 00:54:51;;;;;;;18.43;11.97;;;1.70;79.70;;;;;;6237373;23;20384;-80
2023/12/02 00:57:16;;;;;;;19.80;13.03;;;1.80;80.00;;;;;;6237614;23;20012;-80
2023/12/02 00:59:42;;;;;;;17.30;12.20;;;1.70;80.10;;;;;;6237823;23;20065;-80
2023/12/02 01:02:08;;;;;;;18.63;12.83;;;1.70;80.30;;;;;;6237377;23;20028;-80
2023/12/02 01:04:33;;;;;;;20.87;13.23;;;1.70;80.50;;;;;;6238499;23;20345;-80
2023/12/02 01:06:59;;;;;;;19.10;13.30;;;1.70;80.50;;;;;;6238621;23;20013;-80
2023/12/02 01:09:25;;;;;;;21.07;13.53;;;1.70;80.60;;;;;;6239700;23;20012;-80
2023/12/02 01:11:51;;;;;;;20.03;13.20;;;1.70;80.70;;;;;;6240466;23;20012;-80
2023/12/02 01:14:16;;;;;;;19.63;13.33;;;1.70;80.90;;;;;;6215762;23;20034;-80
2023/12/02 01:16:42;;;;;;;18.97;13.47;;;1.70;80.90;;;;;;6240468;23;20012;-80
2023/12/02 01:19:08;;;;;;;21.37;14.30;;;1.70;80.90;;;;;;6243546;23;20472;-81
2023/12/02 01:21:33;;;;;;;21.80;14.10;;;1.70;80.60;;;;;;6244752;22;20012;-80
2023/12/02 01:23:59;;;;;;;20.10;13.80;;;1.70;80.20;;;;;;6246623;23;20012;-80
2023/12/02 01:26:24;;;;;;;21.23;13.70;;;1.70;80.10;;;;;;6246926;23;20023;-80
2023/12/02 01:28:50;;;;;;;18.03;12.40;;;1.70;80.20;;;;;;6270369;23;20023;-80
2023/12/02 01:31:16;;;;;;;23.53;16.17;;;1.60;80.30;;;;;;6239176;23;20035;-80
2023/12/02 01:33:41;;;;;;;21.00;15.90;;;1.70;80.60;;;;;;6239379;23;20012;-80
2023/12/02 01:36:13;;;;;;;37.07;25.47;;;1.70;80.70;;;;;;6239706;23;20020;-80
2023/12/02 01:38:38;;;;;;;27.83;19.03;;;1.70;80.90;;;;;;6212552;23;20012;-77
2023/12/02 01:41:04;;;;;;;37.00;24.37;;;1.70;80.90;;;;;;6226964;23;20022;-80
2023/12/02 01:43:30;;;;;;;35.50;23.87;;;1.70;81.00;;;;;;6232534;23;20032;-79
2023/12/02 01:45:56;;;;;;;31.50;20.83;;;1.70;81.00;;;;;;6232760;23;20043;-79
2023/12/02 01:48:30;;;;;;;31.30;21.47;;;1.70;81.00;;;;;;6260234;23;20012;-78
2023/12/02 01:50:56;;;;;;;;;;;1.70;81.10;;;;;;6235849;23;20449;-79
2023/12/02 01:53:22;;;;;;;31.50;20.30;;;1.70;81.10;;;;;;6232560;23;19915;-79
2023/12/02 01:55:47;;;;;;;35.07;22.57;;;1.70;81.20;;;;;;6231637;23;20068;-79
2023/12/02 01:58:13;;;;;;;30.80;20.80;;;1.70;81.20;;;;;;6233192;23;20340;-80
2023/12/02 02:00:39;;;;;;;28.47;20.43;;;1.70;81.30;;;;;;6231881;23;20074;-79
2023/12/02 02:03:04;;;;;;;30.80;21.33;;;1.70;81.40;;;;;;6231594;23;20023;-79
2023/12/02 02:05:30;;;;;;;28.17;19.33;;;1.70;81.50;;;;;;6231868;23;20023;-79
2023/12/02 02:07:56;;;;;;;27.37;17.23;;;1.80;81.60;;;;;;6258937;23;20012;-79
2023/12/02 02:10:21;;;;;;;27.20;18.67;;;1.80;81.70;;;;;;6258028;23;20064;-79
2023/12/02 02:12:47;;;;;;;25.40;17.23;;;1.80;81.80;;;;;;6231902;23;20083;-79
2023/12/02 02:15:13;;;;;;;24.00;16.70;;;1.80;81.80;;;;;;6232136;23;20068;-79
2023/12/02 02:17:39;;;;;;;25.07;17.40;;;1.80;81.80;;;;;;6231129;23;20035;-79
2023/12/02 02:20:05;;;;;;;22.67;16.10;;;1.80;81.80;;;;;;6257689;23;20016;-79
2023/12/02 02:22:31;;;;;;;26.73;16.37;;;1.90;81.90;;;;;;6232160;23;20031;-79
2023/12/02 02:24:56;;;;;;;24.50;16.63;;;1.90;81.90;;;;;;6260105;23;20016;-79
2023/12/02 02:27:22;;;;;;;22.43;15.27;;;1.90;81.90;;;;;;6235530;23;20042;-79
2023/12/02 02:29:48;;;;;;;22.77;15.27;;;1.90;81.90;;;;;;6230524;23;20020;-79
2023/12/02 02:32:13;;;;;;;24.53;16.37;;;1.90;81.80;;;;;;6258364;23;20012;-79
2023/12/02 02:34:42;;;;;;;21.77;14.80;;;1.90;81.80;;;;;;6232463;23;20008;-80
2023/12/02 02:37:08;;;;;;;22.07;14.70;;;1.90;81.80;;;;;;6233168;23;20064;-79
2023/12/02 02:39:34;;;;;;;23.27;15.07;;;1.90;81.80;;;;;;6236259;23;20522;-79
2023/12/02 02:42:05;;;;;;;20.57;15.17;;;2.00;81.80;;;;;;6263256;23;20366;-79
2023/12/02 02:44:32;;;;;;;22.67;15.33;;;1.90;81.70;;;;;;6236367;23;20023;-79
2023/12/02 02:46:58;;;;;;;20.93;14.80;;;2.00;81.70;;;;;;6236884;23;20018;-80
2023/12/02 02:49:24;;;;;;;23.83;15.10;;;2.00;81.70;;;;;;6259224;23;20392;-79
2023/12/02 02:51:49;;;;;;;21.90;15.13;;;2.00;81.70;;;;;;6259847;23;20015;-79
2023/12/02 02:54:15;;;;;;;23.40;15.93;;;2.00;81.70;;;;;;6256092;23;20012;-79
2023/12/02 02:56:40;;;;;;;22.97;15.20;;;2.00;81.70;;;;;;6256787;23;20032;-79
2023/12/02 02:59:06;;;;;;;22.40;15.30;;;2.00;81.70;;;;;;6231632;23;20012;-79
2023/12/02 03:01:31;;;;;;;21.70;14.60;;;2.00;81.70;;;;;;6259079;23;20016;-79
2023/12/02 03:03:57;;;;;;;21.73;14.73;;;2.00;81.70;;;;;;6205486;23;20008;-79
2023/12/02 03:06:24;;;;;;;21.17;14.43;;;2.00;81.70;;;;;;6230994;23;20013;-79
2023/12/02 03:08:50;;;;;;;22.67;15.47;;;2.00;81.70;;;;;;6257298;23;20314;-79
2023/12/02 03:11:16;;;;;;;22.80;14.43;;;2.00;81.60;;;;;;6230581;23;20079;-79
2023/12/02 03:13:41;;;;;;;22.03;14.50;;;2.10;81.60;;;;;;6230896;23;20008;-79
2023/12/02 03:16:08;;;;;;;22.53;15.63;;;2.10;81.60;;;;;;6230932;23;20016;-79
2023/12/02 03:18:33;;;;;;;21.97;14.63;;;2.10;81.60;;;;;;6231581;23;20016;-79
2023/12/02 03:20:59;;;;;;;20.47;13.83;;;2.10;81.60;;;;;;6257205;23;20065;-79
2023/12/02 03:23:25;;;;;;;22.00;14.57;;;2.10;81.60;;;;;;6230900;23;20463;-79
2023/12/02 03:25:51;;;;;;;20.77;14.73;;;2.10;81.60;;;;;;6257094;23;20016;-79
2023/12/02 03:28:18;;;;;;;21.57;14.40;;;2.10;81.90;;;;;;6232832;23;20020;-79
2023/12/02 03:30:43;;;;;;;21.43;14.17;;;2.10;81.50;;;;;;6209334;23;20019;-79
2023/12/02 03:33:09;;;;;;;19.13;13.77;;;2.10;81.40;;;;;;6236410;23;20009;-79
2023/12/02 03:35:35;;;;;;;23.07;15.50;;;2.10;81.40;;;;;;6237366;23;20016;-79
2023/12/02 03:38:00;;;;;;;22.83;15.23;;;2.10;81.40;;;;;;6235994;23;20087;-79
2023/12/02 03:40:26;;;;;;;22.67;15.20;;;2.10;81.40;;;;;;6235324;23;20016;-79
2023/12/02 03:42:52;;;;;;;21.43;14.57;;;2.10;81.30;;;;;;6237992;23;20016;-79
2023/12/02 03:45:17;;;;;;;22.50;15.23;;;2.10;81.20;;;;;;6263930;23;20350;-79
2023/12/02 03:47:43;;;;;;;22.43;15.07;;;2.10;81.20;;;;;;6239062;23;20012;-79
2023/12/02 03:50:09;;;;;;;22.77;14.77;;;2.10;81.20;;;;;;6236765;23;20016;-79
2023/12/02 03:52:34;;;;;;;23.23;15.23;;;2.10;81.10;;;;;;6234292;23;20016;-79
2023/12/02 03:55:01;;;;;;;20.73;14.60;;;2.10;81.20;;;;;;6234356;23;20318;-79
2023/12/02 03:57:27;;;;;;;23.57;14.63;;;2.10;81.20;;;;;;6261704;23;20491;-79
2023/12/02 03:59:53;;;;;;;21.50;14.07;;;2.10;81.10;;;;;;6259021;23;20012;-79
2023/12/02 04:02:18;;;;;;;22.10;14.63;;;2.10;81.10;;;;;;6257994;23;20066;-79
2023/12/02 04:04:44;;;;;;;24.43;15.63;;;2.10;81.10;;;;;;6230325;23;20890;-79
2023/12/02 04:07:10;;;;;;;21.33;14.57;;;2.10;81.50;;;;;;6230557;23;20039;-79
2023/12/02 04:09:35;;;;;;;23.13;15.13;;;2.10;81.10;;;;;;6205063;23;20008;-79
2023/12/02 04:12:01;;;;;;;20.10;14.00;;;2.10;81.10;;;;;;6231111;23;20074;-79
2023/12/02 04:14:26;;;;;;;20.60;14.30;;;2.10;81.00;;;;;;6231096;23;20031;-79
2023/12/02 04:16:52;;;;;;;22.33;15.23;;;2.00;81.00;;;;;;6257888;23;20016;-79
2023/12/02 04:19:18;;;;;;;22.00;15.03;;;2.10;81.10;;;;;;6258275;23;20067;-79
2023/12/02 04:21:44;;;;;;;22.57;14.87;;;2.00;81.00;;;;;;6231500;23;20027;-79
2023/12/02 04:24:10;;;;;;;21.43;13.83;;;2.00;81.00;;;;;;6230782;23;20063;-79
2023/12/02 04:26:37;;;;;;;23.67;15.07;;;2.00;80.90;;;;;;6230783;23;20023;-79
2023/12/02 04:29:02;;;;;;;21.97;15.57;;;2.00;81.00;;;;;;6231599;23;20055;-79
2023/12/02 04:31:29;;;;;;;23.97;15.93;;;2.00;81.00;;;;;;6257971;23;20008;-79
2023/12/02 04:33:55;;;;;;;19.83;13.83;;;2.00;81.00;;;;;;6230943;23;20345;-79
2023/12/02 04:36:20;;;;;;;22.47;15.07;;;2.00;81.00;;;;;;6258632;23;20015;-79
2023/12/02 04:38:46;;;;;;;22.60;14.80;;;2.00;81.00;;;;;;6259150;23;21138;-79
2023/12/02 04:41:11;;;;;;;23.23;16.10;;;2.00;81.00;;;;;;6258776;23;20008;-79
2023/12/02 04:43:38;;;;;;;24.17;15.40;;;2.00;81.00;;;;;;6259691;23;20012;-79
2023/12/02 04:46:06;;;;;;;22.27;15.03;;;2.00;81.00;;;;;;6232699;23;20008;-79
2023/12/02 04:48:33;;;;;;;23.23;15.03;;;2.00;81.00;;;;;;6234080;23;20067;-79
2023/12/02 04:50:59;;;;;;;24.63;15.97;;;2.00;81.00;;;;;;6233718;23;20346;-79
2023/12/02 04:53:24;;;;;;;21.60;14.43;;;2.00;81.00;;;;;;6235750;23;20008;-79
2023/12/02 04:55:52;;;;;;;23.33;15.57;;;2.00;81.10;;;;;;6234346;23;20016;-79
2023/12/02 04:58:22;;;;;;;23.60;15.17;;;2.00;81.10;;;;;;6233072;23;20008;-79
2023/12/02 05:00:48;;;;;;;22.93;15.23;;;2.00;81.20;;;;;;6233098;23;20016;-79
2023/12/02 05:03:17;;;;;;;24.00;16.27;;;2.00;81.20;;;;;;6233188;23;20028;-79
2023/12/02 05:05:43;;;;;;;21.97;14.70;;;2.00;81.20;;;;;;6234224;23;20042;-79
2023/12/02 05:08:09;;;;;;;24.53;15.27;;;1.90;81.20;;;;;;6234906;23;20016;-79
2023/12/02 05:10:35;;;;;;;25.03;15.83;;;1.90;81.20;;;;;;6235130;23;20019;-79
2023/12/02 05:13:01;;;;;;;24.17;15.93;;;1.90;81.20;;;;;;6261408;23;20036;-79
2023/12/02 05:15:26;;;;;;;25.27;16.17;;;1.90;81.30;;;;;;6211015;23;20004;-79
2023/12/02 05:17:52;;;;;;;24.53;16.50;;;1.90;81.30;;;;;;6231993;23;20012;-79
2023/12/02 05:20:19;;;;;;;25.83;17.17;;;1.90;81.30;;;;;;6232702;23;20084;-79
2023/12/02 05:22:44;;;;;;;22.43;14.80;;;1.90;81.30;;;;;;6233431;23;20047;-79
2023/12/02 05:25:10;;;;;;;25.03;16.00;;;1.90;81.20;;;;;;6208042;23;20023;-79
2023/12/02 05:27:36;;;;;;;26.27;16.73;;;1.90;81.30;;;;;;6208707;23;20012;-79
2023/12/02 05:30:04;;;;;;;24.13;15.80;;;1.90;81.30;;;;;;6210232;23;20043;-79
2023/12/02 05:32:29;;;;;;;27.13;17.50;;;1.90;81.30;;;;;;6233117;23;20345;-79
2023/12/02 05:34:55;;;;;;;24.83;15.57;;;1.90;81.30;;;;;;6232446;23;20012;-79
2023/12/02 05:37:20;;;;;;;23.57;16.10;;;1.90;81.30;;;;;;6232233;23;20062;-79
2023/12/02 05:39:46;;;;;;;24.63;17.10;;;1.90;81.30;;;;;;6230729;23;20066;-79
2023/12/02 05:42:12;;;;;;;23.63;15.87;;;1.90;81.30;;;;;;6231163;23;20012;-79
2023/12/02 05:44:40;;;;;;;23.30;15.60;;;1.90;81.30;;;;;;6232014;23;20039;-79
2023/12/02 05:47:06;;;;;;;23.47;15.37;;;1.90;81.30;;;;;;6232377;23;20068;-79
2023/12/02 05:49:32;;;;;;;23.77;16.03;;;1.90;81.40;;;;;;6233218;23;20024;-79
2023/12/02 05:51:58;;;;;;;25.87;16.37;;;1.90;81.40;;;;;;6259515;23;20543;-79
2023/12/02 05:54:24;;;;;;;25.80;16.67;;;1.90;81.40;;;;;;6259735;23;20008;-79
2023/12/02 05:56:52;;;;;;;25.00;16.37;;;1.90;81.40;;;;;;6233826;23;20015;-79
2023/12/02 05:59:21;;;;;;;25.40;16.33;;;1.90;81.40;;;;;;6233541;23;20092;-79
2023/12/02 06:01:46;;;;;;;27.47;17.07;;;1.90;81.40;;;;;;6235359;23;20036;-79
2023/12/02 06:04:12;;;;;;;23.97;16.90;;;1.90;81.30;;;;;;6236474;23;20047;-79
2023/12/02 06:06:37;;;;;;;27.97;18.00;;;1.90;81.30;;;;;;6236172;23;20023;-79
2023/12/02 06:09:03;;;;;;;26.43;16.43;;;1.90;81.30;;;;;;6233710;23;20016;-79
2023/12/02 06:11:29;;;;;;;26.10;16.83;;;2.00;81.30;;;;;;6232497;23;20054;-79
2023/12/02 06:13:54;;;;;;;24.67;16.00;;;1.90;81.20;;;;;;6232104;23;20391;-79
2023/12/02 06:16:20;;;;;;;25.13;17.23;;;1.90;81.30;;;;;;6232275;23;20015;-79
2023/12/02 06:18:45;;;;;;;26.10;17.83;;;1.90;81.30;;;;;;6206589;23;20087;-79
2023/12/02 06:21:12;;;;;;;29.57;18.43;;;1.90;81.30;;;;;;6257747;23;20020;-79
2023/12/02 06:23:38;;;;;;;27.47;17.10;;;1.90;81.30;;;;;;6258338;23;20043;-79
2023/12/02 06:26:04;;;;;;;27.03;17.90;;;1.90;81.30;;;;;;6257974;23;20066;-79
2023/12/02 06:28:29;;;;;;;26.23;16.67;;;1.90;81.30;;;;;;6230142;23;20060;-79
2023/12/02 06:30:57;;;;;;;28.70;18.37;;;1.90;81.30;;;;;;6230164;23;20015;-79
2023/12/02 06:33:23;;;;;;;25.63;17.13;;;1.90;81.40;;;;;;6229984;23;20016;-79
2023/12/02 06:35:49;;;;;;;26.83;17.27;;;1.90;81.40;;;;;;6230948;23;20012;-79
2023/12/02 06:38:14;;;;;;;26.97;17.37;;;1.90;81.40;;;;;;6231082;23;20107;-79
2023/12/02 06:40:40;;;;;;;29.37;18.40;;;2.20;81.50;;;;;;6231022;23;20092;-79
2023/12/02 06:43:05;;;;;;;28.20;17.17;;;1.90;81.30;;;;;;6233173;23;20012;-79
2023/12/02 06:45:31;;;;;;;28.73;18.40;;;1.90;81.30;;;;;;6231584;23;20019;-79
2023/12/02 06:47:57;;;;;;;28.10;19.17;;;1.90;81.30;;;;;;6259045;23;20012;-79
2023/12/02 06:50:22;;;;;;;25.10;16.77;;;1.90;81.30;;;;;;6260879;23;20016;-79
2023/12/02 06:52:48;;;;;;;27.23;17.63;;;1.90;81.30;;;;;;6234945;23;20445;-78
2023/12/02 06:55:14;;;;;;;29.60;18.43;;;1.90;81.30;;;;;;6235640;23;20016;-79
2023/12/02 06:57:40;;;;;;;28.10;17.73;;;1.90;81.30;;;;;;6262937;23;20019;-79
2023/12/02 07:00:09;;;;;;;28.37;17.47;;;1.90;81.30;;;;;;6262662;23;20016;-79
2023/12/02 07:02:34;;;;;;;29.10;18.47;;;1.90;81.30;;;;;;6262530;23;20022;-79
2023/12/02 07:05:00;;;;;;;28.63;18.73;;;1.90;81.30;;;;;;6237017;23;20016;-79
2023/12/02 07:07:25;;;;;;;30.17;18.40;;;1.90;81.30;;;;;;6239509;23;20012;-79
2023/12/02 07:09:51;;;;;;;28.67;18.20;;;1.90;81.30;;;;;;6212793;23;20078;-79
2023/12/02 07:12:17;;;;;;;26.77;17.27;;;1.90;81.30;;;;;;6237483;23;20012;-79
2023/12/02 07:14:42;;;;;;;29.43;17.57;;;1.90;81.30;;;;;;6238629;23;20012;-79
2023/12/02 07:17:08;;;;;;;29.43;18.03;;;1.90;81.30;;;;;;6238421;23;20020;-79
2023/12/02 07:19:33;;;;;;;29.70;17.83;;;1.90;81.30;;;;;;6236849;23;20083;-79
2023/12/02 07:21:59;;;;;;;26.37;17.30;;;1.90;81.30;;;;;;6263579;23;20039;-79
2023/12/02 07:24:24;;;;;;;29.77;18.60;;;1.90;81.30;;;;;;6237408;23;20016;-79
2023/12/02 07:26:50;;;;;;;28.43;17.73;;;1.90;81.40;;;;;;6238577;23;20112;-80
2023/12/02 07:29:16;;;;;;;31.80;19.83;;;1.90;81.40;;;;;;6238886;23;20019;-80
2023/12/02 07:31:43;;;;;;;30.17;18.17;;;1.90;81.40;;;;;;6267594;23;20015;-79
2023/12/02 07:34:09;;;;;;;29.33;18.07;;;1.80;81.40;;;;;;6262782;23;20074;-79
2023/12/02 07:36:35;;;;;;;31.20;19.30;;;1.90;81.50;;;;;;6263347;23;20008;-79
2023/12/02 07:39:02;;;;;;;30.17;18.73;;;1.90;81.60;;;;;;6264174;23;20008;-79
2023/12/02 07:41:27;;;;;;;28.53;19.23;;;1.90;81.60;;;;;;6262686;23;20055;-79
2023/12/02 07:43:53;;;;;;;31.53;17.73;;;1.90;81.60;;;;;;6239075;23;20441;-79
2023/12/02 07:46:18;;;;;;;28.80;18.00;;;1.90;81.60;;;;;;6236836;23;20066;-80
2023/12/02 07:48:44;;;;;;;29.00;18.47;;;1.90;81.60;;;;;;6233807;23;20012;-79
2023/12/02 07:51:09;;;;;;;30.20;18.17;;;1.90;81.60;;;;;;6238557;23;20047;-80
2023/12/02 07:53:35;;;;;;;27.97;16.73;;;1.90;81.60;;;;;;6259581;23;20008;-79
2023/12/02 07:56:01;;;;;;;30.90;19.87;;;1.90;81.60;;;;;;6225444;23;20330;-79
2023/12/02 07:58:26;;;;;;;28.80;17.87;;;1.90;81.60;;;;;;6233305;23;20015;-79
2023/12/02 08:00:52;;;;;;;32.57;20.20;;;1.90;81.70;;;;;;6260925;23;20059;-79
2023/12/02 08:03:17;;;;;;;29.87;18.10;;;1.90;81.70;;;;;;6249460;23;20012;-78
2023/12/02 08:05:44;;;;;;;30.90;18.83;;;1.90;81.70;;;;;;6233854;23;20039;-79
2023/12/02 08:08:09;;;;;;;31.77;19.10;;;1.90;81.70;;;;;;6234741;23;20095;-79
2023/12/02 08:10:35;;;;;;;32.77;19.93;;;1.90;81.60;;;;;;6211082;23;20027;-79
2023/12/02 08:13:01;;;;;;;29.13;17.90;;;1.90;81.60;;;;;;6234733;23;20012;-79
2023/12/02 08:15:26;;;;;;;29.50;18.30;;;1.90;81.40;;;;;;6239495;23;20012;-79
2023/12/02 08:17:52;;;;;;;35.90;21.80;;;1.80;81.20;;;;;;6260578;23;20060;-79
2023/12/02 08:20:17;;;;;;;33.83;20.57;;;1.80;81.20;;;;;;6232660;23;20063;-79
2023/12/02 08:22:43;;;;;;;33.70;20.23;;;1.80;81.20;;;;;;6228139;23;20016;-79
2023/12/02 08:25:08;;;;;;;32.90;18.90;;;1.80;81.40;;;;;;6228890;23;20071;-78
2023/12/02 08:27:34;;;;;;;32.60;19.40;;;1.80;81.50;;;;;;6251307;23;20016;-78
2023/12/02 08:30:00;;;;;;;34.70;20.97;;;1.80;81.60;;;;;;6233227;23;20955;-80
2023/12/02 08:32:25;;;;;;;34.07;20.63;;;1.70;81.40;;;;;;6239213;23;20051;-79
2023/12/02 08:34:51;;;;;;;33.30;20.63;;;1.70;81.40;;;;;;6236648;23;20020;-79
2023/12/02 08:37:17;;;;;;;33.23;20.20;;;1.70;81.30;;;;;;6230023;23;20012;-78
2023/12/02 08:39:42;;;;;;;30.37;18.17;;;1.70;81.30;;;;;;6222197;23;20012;-79
2023/12/02 08:42:08;;;;;;;32.73;18.53;;;1.60;81.20;;;;;;6222026;23;20020;-78
2023/12/02 08:44:33;;;;;;;32.63;19.07;;;1.60;81.10;;;;;;6217732;23;20008;-78
2023/12/02 08:47:01;;;;;;;35.83;20.70;;;1.60;81.00;;;;;;6244665;23;20008;-77
2023/12/02 08:49:27;;;;;;;32.80;18.20;;;1.60;80.90;;;;;;6243472;23;20310;-78
2023/12/02 08:51:53;;;;;;;32.33;18.80;;;1.50;80.90;;;;;;6243000;23;20078;-78
2023/12/02 08:54:19;;;;;;;32.67;19.43;;;1.50;80.90;;;;;;6219121;23;20016;-78
2023/12/02 08:56:45;;;;;;;31.20;19.00;;;1.40;80.90;;;;;;6243502;23;20018;-77
2023/12/02 08:59:10;;;;;;;34.20;18.90;;;1.40;80.90;;;;;;6245126;23;20051;-78
2023/12/02 09:01:36;;;;;;;30.77;18.20;;;1.40;80.80;;;;;;6244961;23;20023;-78
2023/12/02 09:04:02;;;;;;;33.60;20.07;;;1.40;80.80;;;;;;6243436;23;20729;-78
2023/12/02 09:06:28;;;;;;;35.23;20.40;;;1.30;80.90;;;;;;6217336;23;20012;-78
2023/12/02 09:08:53;;;;;;;34.23;20.87;;;1.20;80.90;;;;;;6216992;23;20086;-78
2023/12/02 09:11:19;;;;;;;35.17;20.40;;;1.30;81.10;;;;;;6244090;23;20516;-78
2023/12/02 09:13:49;;;;;;;37.50;20.77;;;1.20;81.10;;;;;;6217177;23;20024;-77
2023/12/02 09:16:20;;;;;;;35.43;20.23;;;1.20;81.20;;;;;;6245588;23;20009;-78
2023/12/02 09:18:45;;;;;;;34.10;19.30;;;1.20;81.40;;;;;;6246653;23;20012;-78
2023/12/02 09:21:44;;;;;;;34.27;19.93;;;1.10;81.50;;;;;;6172235;23;1054788;-77
2023/12/02 09:24:31;;;;;;;35.00;19.47;;;1.10;81.70;;;;;;6247080;23;20121;-78
2023/12/02 09:26:56;;;;;;;38.37;20.90;;;1.10;81.90;;;;;;6246457;23;20069;-78
2023/12/02 09:29:28;;;;;;;36.57;20.00;;;1.10;82.00;;;;;;6248326;23;20083;-79
2023/12/02 09:31:54;;;;;;;35.67;20.60;;;1.10;82.10;;;;;;6229357;23;20092;-79
2023/12/02 09:34:59;;;;;;;36.53;20.53;;;1.10;82.70;;;;;;6229966;23;20384;-78
2023/12/02 09:37:51;;;;;;;39.97;20.10;;;1.10;82.40;;;;;;6246992;23;20012;-79
2023/12/02 09:40:20;;;;;;;38.50;21.47;;;1.00;82.60;;;;;;6232256;23;20091;-79
2023/12/02 09:42:55;;;;;;;39.30;21.53;;;1.00;82.80;;;;;;6228905;23;20348;-79
2023/12/02 09:45:39;;;;;;;40.78;22.55;;;1.00;83.00;;;;;;6229913;23;20027;-78
2023/12/02 09:48:13;;;;;;;37.17;20.10;;;1.00;83.20;;;;;;6259863;23;20020;-78
2023/12/02 09:51:02;;;;;;;38.33;21.15;;;1.00;83.30;;;;;;6261037;23;20034;-78
2023/12/02 09:53:42;;;;;;;38.67;21.00;;;1.10;83.70;;;;;;6259823;23;20023;-79
2023/12/02 09:56:17;;;;;;;40.13;21.63;;;1.10;84.00;;;;;;6209779;23;20020;-79
2023/12/02 09:58:45;;;;;;;32.37;19.43;;;1.10;84.20;;;;;;6263697;23;20019;-79
2023/12/02 10:01:40;;;;;;;36.60;19.77;;;1.20;84.30;;;;;;6238025;23;20027;-79
2023/12/02 10:04:18;;;;;;;39.03;21.30;;;1.20;84.50;;;;;;6205246;23;20500;-79
2023/12/02 10:07:01;;;;;;;38.67;21.77;;;1.30;84.70;;;;;;6258052;23;20322;-79
2023/12/02 10:09:42;;;;;;;38.57;20.87;;;1.30;84.80;;;;;;6236548;23;20040;-78
2023/12/02 10:12:40;;;;;;;35.37;19.67;;;1.40;85.00;;;;;;6214380;23;20046;-79
2023/12/02 10:15:11;;;;;;;34.80;21.00;;;1.40;85.00;;;;;;6241823;23;20000;-79
2023/12/02 10:17:43;;;;;;;37.47;21.57;;;1.50;85.10;;;;;;6239798;23;20012;-81
2023/12/02 10:20:12;;;;;;;37.77;19.37;;;1.50;85.20;;;;;;6239763;23;20020;-80
2023/12/02 10:22:44;;;;;;;34.17;19.37;;;1.60;85.30;;;;;;6236991;23;20484;-79
2023/12/02 10:25:32;;;;;;;33.83;20.30;;;1.60;85.40;;;;;;6264919;23;20007;-79
2023/12/02 10:28:14;;;;;;;38.00;21.17;;;1.70;85.40;;;;;;6262935;23;20034;-79
2023/12/02 10:30:45;;;;;;;45.43;21.37;;;1.80;85.50;;;;;;6257980;23;20008;-80
2023/12/02 10:33:57;;;;;;;38.67;21.13;;;1.80;85.50;;;;;;6215480;23;20040;-79
2023/12/02 10:36:27;;;;;;;35.03;20.47;;;1.90;85.50;;;;;;6242392;23;20016;-79
2023/12/02 10:39:11;;;;;;;36.67;19.80;;;1.90;85.50;;;;;;6242462;23;20040;-79
2023/12/02 10:41:53;;;;;;;35.88;20.23;;;2.00;85.50;;;;;;6244639;23;20012;-79
2023/12/02 10:44:21;;;;;;;35.40;20.27;;;2.00;85.50;;;;;;6266793;23;20008;-79
2023/12/02 10:46:48;;;;;;;36.30;19.83;;;2.10;85.40;;;;;;6264747;23;20019;-79
2023/12/02 10:49:14;;;;;;;36.93;20.43;;;2.20;85.40;;;;;;6264086;23;20056;-79
2023/12/02 10:51:42;;;;;;;36.17;19.43;;;2.20;85.30;;;;;;6264458;23;20435;-79
2023/12/02 10:54:09;;;;;;;34.97;21.07;;;2.30;85.20;;;;;;6239471;23;20039;-79
2023/12/02 10:56:39;;;;;;;36.00;20.73;;;2.40;85.10;;;;;;6239246;23;20015;-79
2023/12/02 10:59:05;;;;;;;35.83;20.80;;;2.40;85.00;;;;;;6214941;23;20334;-79
2023/12/02 11:02:04;;;;;;;33.60;20.27;;;2.40;84.90;;;;;;6238731;23;20009;-79
2023/12/02 11:04:39;;;;;;;34.67;20.17;;;2.50;84.90;;;;;;6237513;23;20017;-79
2023/12/02 11:07:09;;;;;;;35.87;21.47;;;2.50;84.90;;;;;;6266055;23;20016;-79
2023/12/02 11:09:57;;;;;;;35.67;20.50;;;2.60;85.30;;;;;;6266429;23;20055;-79
2023/12/02 11:12:45;;;;;;;35.33;19.97;;;2.60;84.80;;;;;;6238349;23;20016;-79
2023/12/02 11:15:13;;;;;;;37.60;21.00;;;2.70;84.80;;;;;;6263388;23;20032;-79
2023/12/02 11:17:41;;;;;;;40.05;20.92;;;2.70;85.20;;;;;;6236332;23;20053;-79
2023/12/02 11:20:22;;;;;;;35.05;20.27;;;2.80;84.80;;;;;;6238181;23;20016;-79
2023/12/02 11:22:59;;;;;;;33.38;20.13;;;2.90;84.90;;;;;;6238354;23;20023;-79
2023/12/02 11:25:59;;;;;;;37.95;20.20;;;2.90;84.90;;;;;;6238862;23;20028;-79
2023/12/02 11:28:54;;;;;;;36.63;19.52;;;3.00;84.80;;;;;;6265511;23;20453;-79
2023/12/02 11:31:44;;;;;;;36.35;19.92;;;3.00;84.80;;;;;;6267735;23;20027;-80
2023/12/02 11:34:34;;;;;;;36.53;21.05;;;3.10;84.60;;;;;;6269033;23;20064;-80
2023/12/02 11:38:02;;;;;;;35.95;20.75;;;3.20;84.50;;;;;;6242312;23;20023;-79
2023/12/02 11:40:49;;;;;;;37.72;20.92;;;3.20;84.30;;;;;;6212779;23;20024;-80
2023/12/02 11:43:42;;;;;;;38.20;21.05;;;3.30;84.30;;;;;;6267289;23;20095;-79
2023/12/02 11:46:15;;;;;;;37.17;20.70;;;3.30;84.20;;;;;;6237780;23;20019;-79
2023/12/02 11:48:50;;;;;;;36.75;20.85;;;3.30;84.10;;;;;;6238380;23;19992;-79
2023/12/02 11:51:42;;;;;;;32.55;20.33;;;3.40;84.00;;;;;;6239408;23;20015;-79
2023/12/02 11:54:37;;;;;;;36.30;20.42;;;3.40;83.80;;;;;;6266506;23;20019;-79
2023/12/02 11:57:56;;;;;;;39.40;21.27;;;3.50;83.90;;;;;;6270768;23;20019;-79
2023/12/02 12:01:01;;;;;;;37.40;20.70;;;3.50;83.70;;;;;;6232434;23;20016;-79
2023/12/02 12:03:51;;;;;;;34.40;20.60;;;3.60;83.70;;;;;;6267592;23;20060;-79
2023/12/02 12:06:40;;;;;;;36.22;21.67;;;3.60;83.70;;;;;;6268256;23;20052;-80
2023/12/02 12:09:09;;;;;;;39.90;23.63;;;3.60;83.60;;;;;;6242523;23;20076;-80
2023/12/02 12:11:36;;;;;;;34.35;22.23;;;3.60;83.50;;;;;;6270093;23;20477;-80
2023/12/02 12:14:06;;;;;;;37.80;23.77;;;3.70;83.50;;;;;;6201155;23;20043;-78
2023/12/02 12:16:31;;;;;;;41.30;23.92;;;3.70;83.50;;;;;;6251403;23;20008;-78
2023/12/02 12:18:58;;;;;;;38.78;23.52;;;3.70;83.40;;;;;;6231588;23;20019;-79
2023/12/02 12:21:24;;;;;;;36.30;22.02;;;3.70;83.30;;;;;;6213953;23;20020;-80
2023/12/02 12:23:49;;;;;;;36.63;23.58;;;3.80;83.30;;;;;;6242190;23;20032;-80
2023/12/02 12:26:15;;;;;;;36.78;22.70;;;3.80;83.30;;;;;;6242774;23;20033;-80
2023/12/02 12:28:41;;;;;;;41.78;23.00;;;3.80;83.20;;;;;;6243657;23;20020;-80
2023/12/02 12:31:10;;;;;;;38.05;21.92;;;3.80;83.10;;;;;;6244426;23;20023;-80
2023/12/02 12:33:39;;;;;;;34.92;20.67;;;3.90;83.10;;;;;;6269772;23;20015;-80
2023/12/02 12:36:09;;;;;;;34.15;21.33;;;3.80;83.00;;;;;;6245679;23;20008;-80
2023/12/02 12:38:37;;;;;;;35.75;22.33;;;3.90;83.10;;;;;;6248767;23;20004;-80
2023/12/02 12:41:05;;;;;;;36.33;20.45;;;3.90;83.00;;;;;;6272130;23;20008;-80
2023/12/02 12:43:31;;;;;;;34.53;20.95;;;3.90;83.00;;;;;;6270226;23;20008;-80
2023/12/02 12:45:57;;;;;;;37.03;20.80;;;3.90;82.90;;;;;;6243418;23;20353;-80
2023/12/02 12:48:26;;;;;;;38.00;21.42;;;4.00;83.00;;;;;;6243992;23;20046;-80